createdAt,value
2019-05-19T00:01:33.762Z,14.22
2019-05-19T00:05:40.682Z,14.44
2019-05-19T00:09:47.435Z,14.52
2019-05-19T00:13:54.183Z,14.66
2019-05-19T00:18:00.957Z,14.63
2019-05-19T00:22:07.911Z,14.65
2019-05-19T00:26:14.685Z,14.62
2019-05-19T00:30:21.501Z,14.59
2019-05-19T00:34:31.194Z,14.59
2019-05-19T00:38:38.217Z,14.64
2019-05-19T00:42:44.971Z,14.53
2019-05-19T00:46:52.759Z,14.54
2019-05-19T00:50:59.624Z,14.58
2019-05-19T00:55:06.361Z,14.48
2019-05-19T00:59:13.735Z,14.49
2019-05-19T01:03:20.516Z,14.54
2019-05-19T01:07:27.373Z,14.56
2019-05-19T01:11:34.119Z,14.45
2019-05-19T01:15:40.968Z,14.45
2019-05-19T01:19:56.109Z,14.43
2019-05-19T01:23:56.850Z,14.41
2019-05-19T01:28:03.678Z,14.46
2019-05-19T01:32:10.549Z,14.39
2019-05-19T01:36:17.351Z,14.46
2019-05-19T01:40:24.099Z,14.44
2019-05-19T01:44:30.911Z,14.47
2019-05-19T01:48:38.672Z,14.36
2019-05-19T01:52:45.523Z,14.33
2019-05-19T01:56:52.234Z,14.36
2019-05-19T02:00:58.997Z,14.40
2019-05-19T02:05:05.820Z,14.22
2019-05-19T02:09:12.523Z,14.30
2019-05-19T02:13:19.677Z,14.30
2019-05-19T02:17:26.416Z,14.22
2019-05-19T02:21:34.102Z,14.09
2019-05-19T02:25:40.806Z,14.07
2019-05-19T02:29:48.461Z,14.06
2019-05-19T02:33:55.341Z,14.11
2019-05-19T02:38:02.442Z,14.10
2019-05-19T02:42:14.230Z,14.07
2019-05-19T02:46:21.699Z,14.12
2019-05-19T02:50:30.455Z,14.07
2019-05-19T02:54:38.740Z,14.10
2019-05-19T02:58:47.084Z,14.10
2019-05-19T03:02:54.161Z,14.02
2019-05-19T03:07:00.822Z,14.01
2019-05-19T03:11:07.830Z,14.00
2019-05-19T03:15:14.666Z,14.03
2019-05-19T03:19:21.364Z,14.06
2019-05-19T03:23:28.524Z,13.99
2019-05-19T03:27:37.473Z,14.03
2019-05-19T03:31:50.864Z,14.02
2019-05-19T03:35:57.587Z,14.05
2019-05-19T03:40:06.212Z,14.06
2019-05-19T03:44:12.929Z,14.08
2019-05-19T03:48:19.730Z,14.10
2019-05-19T03:52:26.452Z,14.07
2019-05-19T03:56:33.179Z,14.12
2019-05-19T04:00:39.865Z,14.11
2019-05-19T04:04:46.644Z,14.20
2019-05-19T04:08:53.400Z,14.18
2019-05-19T04:13:00.087Z,14.13
2019-05-19T04:17:06.870Z,14.10
2019-05-19T04:21:13.581Z,14.07
2019-05-19T04:25:20.252Z,14.12
2019-05-19T04:29:26.996Z,14.18
2019-05-19T04:33:33.678Z,14.21
2019-05-19T04:37:40.469Z,14.22
2019-05-19T04:41:47.164Z,14.21
2019-05-19T04:45:53.895Z,14.24
2019-05-19T04:50:00.612Z,14.13
2019-05-19T04:54:07.448Z,14.06
2019-05-19T04:58:14.167Z,14.14
2019-05-19T05:02:20.903Z,14.24
2019-05-19T05:06:27.684Z,14.24
2019-05-19T05:10:34.444Z,14.24
2019-05-19T05:14:41.314Z,14.38
2019-05-19T05:18:50.729Z,14.41
2019-05-19T05:22:57.835Z,14.43
2019-05-19T05:27:04.571Z,14.51
2019-05-19T05:31:11.233Z,14.63
2019-05-19T05:35:18.693Z,14.48
2019-05-19T05:39:25.424Z,14.73
2019-05-19T05:43:32.215Z,14.90
2019-05-19T05:47:38.991Z,14.91
2019-05-19T05:51:45.689Z,14.79
2019-05-19T05:55:52.579Z,15.15
2019-05-19T05:59:59.443Z,15.21
2019-05-19T06:04:06.224Z,15.40
2019-05-19T06:08:13.084Z,15.52
2019-05-19T06:12:19.959Z,15.63
2019-05-19T06:16:28.685Z,15.76
2019-05-19T06:20:35.573Z,15.84
2019-05-19T06:24:42.456Z,15.93
2019-05-19T06:28:49.443Z,15.97
2019-05-19T06:32:58.452Z,16.18
2019-05-19T06:37:05.750Z,16.14
2019-05-19T06:41:13.983Z,16.25
2019-05-19T06:45:21.747Z,16.36
2019-05-19T06:49:29.397Z,16.37
2019-05-19T06:53:36.800Z,16.31
2019-05-19T06:57:43.889Z,16.56
2019-05-19T07:01:54.963Z,16.58
2019-05-19T07:06:01.738Z,16.71
2019-05-19T07:10:09.040Z,16.76
2019-05-19T07:14:15.757Z,16.71
2019-05-19T07:18:22.534Z,17.00
2019-05-19T07:22:37.562Z,17.07
2019-05-19T07:26:43.981Z,17.16
2019-05-19T07:30:50.845Z,17.19
2019-05-19T07:34:57.685Z,17.12
2019-05-19T07:39:05.714Z,17.21
2019-05-19T07:43:13.303Z,17.47
2019-05-19T07:47:20.290Z,17.47
2019-05-19T07:51:28.483Z,17.68
2019-05-19T07:55:35.412Z,18.05
2019-05-19T07:59:42.543Z,18.05
2019-05-19T08:03:49.394Z,18.29
2019-05-19T08:07:56.252Z,18.14
2019-05-19T08:12:03.805Z,18.15
2019-05-19T08:16:11.675Z,18.64
2019-05-19T08:20:20.317Z,18.82
2019-05-19T08:24:27.053Z,19.15
2019-05-19T08:28:34.471Z,19.56
2019-05-19T08:32:41.421Z,19.71
2019-05-19T08:36:48.878Z,20.03
2019-05-19T08:40:55.794Z,20.68
2019-05-19T08:45:07.658Z,20.50
2019-05-19T08:49:14.535Z,20.83
2019-05-19T08:53:29.275Z,21.51
2019-05-19T08:57:36.696Z,21.29
2019-05-19T09:01:44.084Z,22.29
2019-05-19T09:05:56.097Z,22.66
2019-05-19T09:10:02.873Z,23.03
2019-05-19T09:14:09.652Z,22.81
2019-05-19T09:18:16.431Z,23.35
2019-05-19T09:22:23.228Z,23.18
2019-05-19T09:26:29.946Z,24.00
2019-05-19T09:30:36.715Z,24.17
2019-05-19T09:34:43.405Z,24.17
2019-05-19T09:38:50.173Z,24.52
2019-05-19T09:42:56.941Z,24.69
2019-05-19T09:47:04.906Z,24.56
2019-05-19T09:51:11.760Z,24.55
2019-05-19T09:55:19.588Z,25.02
2019-05-19T09:59:26.374Z,24.98
2019-05-19T10:03:33.094Z,24.65
2019-05-19T10:07:39.790Z,23.90
2019-05-19T10:12:04.490Z,23.96
2019-05-19T10:16:11.299Z,23.27
2019-05-19T10:20:19.018Z,23.08
2019-05-19T10:24:26.787Z,22.36
2019-05-19T10:28:33.711Z,22.36
2019-05-19T10:32:40.490Z,23.11
2019-05-19T10:36:48.064Z,23.11
2019-05-19T10:40:54.915Z,22.89
2019-05-19T10:45:01.650Z,23.57
2019-05-19T10:49:08.450Z,23.90
2019-05-19T10:53:15.348Z,25.09
2019-05-19T10:57:24.865Z,25.09
2019-05-19T11:01:31.863Z,25.55
2019-05-19T11:05:40.184Z,25.55
2019-05-19T11:09:47.020Z,25.42
2019-05-19T11:13:53.822Z,24.97
2019-05-19T11:18:06.388Z,24.71
2019-05-19T11:22:12.108Z,24.06
2019-05-19T11:26:18.933Z,23.98
2019-05-19T11:30:25.681Z,24.53
2019-05-19T11:34:34.032Z,25.73
2019-05-19T11:38:40.967Z,26.64
2019-05-19T11:42:47.776Z,25.63
2019-05-19T11:46:54.549Z,26.11
2019-05-19T11:51:01.227Z,26.74
2019-05-19T11:55:08.264Z,26.56
2019-05-19T11:59:15.124Z,26.17
2019-05-19T12:03:21.876Z,26.56
2019-05-19T12:07:28.927Z,26.96
2019-05-19T12:11:35.738Z,27.07
2019-05-19T12:15:43.330Z,27.91
2019-05-19T12:19:50.406Z,27.70
2019-05-19T12:23:57.249Z,28.49
2019-05-19T12:28:08.621Z,28.25
2019-05-19T12:32:16.551Z,28.79
2019-05-19T12:36:25.226Z,28.69
2019-05-19T12:40:34.032Z,29.11
2019-05-19T12:44:41.478Z,28.54
2019-05-19T12:48:48.736Z,28.24
2019-05-19T12:52:55.570Z,27.98
2019-05-19T12:57:02.542Z,29.33
2019-05-19T13:01:09.768Z,28.15
2019-05-19T13:05:17.000Z,28.74
2019-05-19T13:09:29.011Z,29.08
2019-05-19T13:13:36.402Z,29.33
2019-05-19T13:17:43.240Z,29.81
2019-05-19T13:21:50.157Z,29.56
2019-05-19T13:25:57.169Z,28.75
2019-05-19T13:30:04.121Z,28.95
2019-05-19T13:34:13.218Z,28.00
2019-05-19T13:38:20.001Z,27.37
2019-05-19T13:42:26.822Z,28.79
2019-05-19T13:46:36.514Z,28.14
2019-05-19T13:50:44.335Z,28.28
2019-05-19T13:54:51.400Z,29.15
2019-05-19T13:58:58.184Z,29.08
2019-05-19T14:03:05.124Z,27.91
2019-05-19T14:07:12.037Z,29.36
2019-05-19T14:11:21.169Z,28.45
2019-05-19T14:15:32.567Z,29.14
2019-05-19T14:19:40.384Z,28.21
2019-05-19T14:23:47.260Z,27.44
2019-05-19T14:27:54.276Z,27.15
2019-05-19T14:32:01.546Z,26.70
2019-05-19T14:36:08.387Z,26.30
2019-05-19T14:40:18.492Z,26.26
2019-05-19T14:44:27.033Z,26.23
2019-05-19T14:48:33.842Z,26.37
2019-05-19T14:52:40.747Z,26.51
2019-05-19T14:56:47.596Z,26.91
2019-05-19T15:00:54.372Z,26.03
2019-05-19T15:05:02.679Z,25.68
2019-05-19T15:09:09.752Z,24.65
2019-05-19T15:13:16.773Z,24.71
2019-05-19T15:17:27.628Z,24.36
2019-05-19T15:21:34.430Z,23.66
2019-05-19T15:25:41.343Z,23.51
2019-05-19T15:30:11.767Z,23.38
2019-05-19T15:34:08.093Z,23.01
2019-05-19T15:38:15.053Z,23.47
2019-05-19T15:42:21.819Z,23.19
2019-05-19T15:46:28.971Z,22.88
2019-05-19T15:50:35.939Z,22.95
2019-05-19T15:54:44.284Z,22.79
2019-05-19T15:58:51.365Z,22.56
2019-05-19T16:02:58.164Z,22.56
2019-05-19T16:07:04.999Z,22.37
2019-05-19T16:11:12.092Z,22.23
2019-05-19T16:15:21.994Z,22.24
2019-05-19T16:19:28.892Z,21.68
2019-05-19T16:23:35.965Z,21.43
2019-05-19T16:27:42.886Z,21.36
2019-05-19T16:31:49.891Z,21.23
2019-05-19T16:35:57.029Z,21.13
2019-05-19T16:40:03.921Z,20.74
2019-05-19T16:44:11.781Z,20.37
2019-05-19T16:48:18.621Z,20.35
2019-05-19T16:52:26.423Z,20.19
2019-05-19T16:56:34.609Z,20.07
2019-05-19T17:00:45.527Z,20.00
2019-05-19T17:04:55.384Z,20.00
2019-05-19T17:09:02.080Z,19.94
2019-05-19T17:13:10.092Z,19.85
2019-05-19T17:17:18.699Z,19.78
2019-05-19T17:21:25.468Z,19.68
2019-05-19T17:25:34.114Z,19.60
2019-05-19T17:29:40.886Z,19.54
2019-05-19T17:33:47.745Z,19.54
2019-05-19T17:37:54.577Z,19.35
2019-05-19T17:42:01.462Z,19.29
2019-05-19T17:46:08.384Z,19.26
2019-05-19T17:50:17.406Z,19.22
2019-05-19T17:54:24.383Z,19.19
2019-05-19T17:58:33.002Z,19.21
2019-05-19T18:02:39.729Z,19.22
2019-05-19T18:06:46.489Z,19.22
2019-05-19T18:10:53.411Z,19.20
2019-05-19T18:15:03.171Z,19.26
2019-05-19T18:19:18.435Z,19.21
2019-05-19T18:23:26.433Z,19.27
2019-05-19T18:27:33.223Z,19.20
2019-05-19T18:31:40.988Z,19.21
2019-05-19T18:35:48.820Z,19.14
2019-05-19T18:39:57.310Z,19.20
2019-05-19T18:44:04.257Z,19.12
2019-05-19T18:48:11.363Z,19.13
2019-05-19T18:52:18.332Z,18.97
2019-05-19T18:56:25.608Z,18.93
2019-05-19T19:00:37.885Z,18.86
2019-05-19T19:04:44.742Z,18.78
2019-05-19T19:08:51.594Z,18.74
2019-05-19T19:12:58.637Z,18.79
2019-05-19T19:17:05.513Z,18.71
2019-05-19T19:21:12.545Z,18.61
2019-05-19T19:25:19.456Z,18.57
2019-05-19T19:29:27.202Z,18.51
2019-05-19T19:33:34.131Z,18.31
2019-05-19T19:37:41.925Z,18.37
2019-05-19T19:41:51.931Z,18.31
2019-05-19T19:45:59.236Z,18.23
2019-05-19T19:50:06.948Z,18.20
2019-05-19T19:54:14.926Z,18.20
2019-05-19T19:58:21.726Z,18.16
2019-05-19T20:02:28.491Z,18.06
2019-05-19T20:06:35.279Z,17.94
2019-05-19T20:10:42.008Z,18.01
2019-05-19T20:14:48.894Z,18.01
2019-05-19T20:18:55.732Z,17.96
2019-05-19T20:23:02.533Z,17.91
2019-05-19T20:27:09.241Z,17.89
2019-05-19T20:31:16.040Z,17.82
2019-05-19T20:35:22.909Z,17.81
2019-05-19T20:39:29.693Z,17.70
2019-05-19T20:43:37.113Z,17.68
2019-05-19T20:47:43.909Z,17.64
2019-05-19T20:51:50.678Z,17.55
2019-05-19T20:56:00.251Z,17.26
2019-05-19T21:00:08.125Z,17.32
2019-05-19T21:04:15.344Z,17.36
2019-05-19T21:08:22.039Z,17.21
2019-05-19T21:12:28.762Z,17.11
2019-05-19T21:16:35.600Z,17.03
2019-05-19T21:20:48.920Z,16.96
2019-05-19T21:24:56.159Z,16.95
2019-05-19T21:29:02.922Z,16.88
2019-05-19T21:33:09.678Z,16.92
2019-05-19T21:37:16.465Z,16.89
2019-05-19T21:41:23.248Z,16.92
2019-05-19T21:45:29.994Z,16.93
2019-05-19T21:49:42.076Z,16.88
2019-05-19T21:53:48.853Z,16.83
2019-05-19T21:57:55.600Z,16.81
2019-05-19T22:02:02.798Z,16.75
2019-05-19T22:06:09.833Z,16.75
2019-05-19T22:10:16.760Z,16.72
2019-05-19T22:14:23.456Z,16.64
2019-05-19T22:18:30.163Z,16.62
2019-05-19T22:22:36.888Z,16.57
2019-05-19T22:26:43.594Z,16.54
2019-05-19T22:30:50.372Z,16.51
2019-05-19T22:34:57.060Z,16.49
2019-05-19T22:39:04.823Z,16.44
2019-05-19T22:43:11.669Z,16.45
2019-05-19T22:47:18.378Z,16.41
2019-05-19T22:51:25.080Z,16.28
2019-05-19T22:55:31.764Z,16.20
2019-05-19T22:59:38.537Z,16.13
2019-05-19T23:03:45.305Z,16.13
2019-05-19T23:07:51.981Z,16.02
2019-05-19T23:11:58.720Z,16.03
2019-05-19T23:16:05.410Z,15.91
2019-05-19T23:20:12.263Z,15.89
2019-05-19T23:24:18.981Z,15.80
2019-05-19T23:28:25.726Z,15.73
2019-05-19T23:32:32.510Z,15.73
2019-05-19T23:36:39.347Z,15.61
2019-05-19T23:40:46.236Z,15.43
2019-05-19T23:44:53.001Z,14.93
2019-05-19T23:48:59.690Z,15.07
2019-05-19T23:53:07.579Z,15.07
2019-05-19T23:57:14.342Z,15.05
